Terminal Aerodrome Forecast
Issued by NWS

Home | Current Version | Previous Version | Graphics & Text | Print | Product List | Glossary On
Versions: 1 2 3 4 5 6 7 8 9 10 11 12
000
FTUS43 KICT 241124
TAFCNU
TAF
KCNU 241124Z 2412/2512 34013KT P6SM -RASN OVC015
      TEMPO 2412/2415 4SM -RASN OVC012
     FM241600 32014G20KT P6SM SCT020 BKN030
     FM242100 30013KT P6SM BKN035
     FM250200 18008KT P6SM SKC=

USA.gov is the U.S. government's official web portal to all federal, state and local government web resources and services.